CZX weather

Changzhou Benniu Airport
Changzhou, Jiangsu Province, China

Public forecast

Using degrees Celsius for public forecast. Weather courtesy of forecast.io.

METAR (pilot weather report)

Report is more than 6 hours old.

Retrieved 2018/11/13 02:00 UTC (4 months ago):

ZSCG 130200Z 08003MPS 040V130 9999 FEW023 15/07 Q1023 NOSIG

TAF (pilot weather forecast)

Forecast is more than 12 hours old.

Closest forecast is Sunan Shuofang International Airport, 41.9 nm (77.6 km) SE. Retrieved 2019/03/07 12:27 UTC (17 days ago):

TAF ZSWX 070748Z 0712/0812 09004MPS 6000 NSC TX12/06Z TN02/21Z